Tiempo atmosférico en la estación meteorológica de La Covatilla, estación de esquí, Salamanca (1960 m.)



Fecha
DESCASC
Temp. máxima en grados centígrados (hora)
DESCASC
Temp. mínima en grados centígrados (hora)
DESCASC
Temp. media en grados centígrados
DESCASC
Racha de viento máxima en m/sg (hora)
DESCASC
Velocidad máxima media en intervalos de 10 minutos(hora)
DESCASC
Precipitaciones diarias en mm
DESCASC
Precipitaciones de 00:00 a 06:00 en mm
DESCASC
Precipitaciones de 06:00 a 12:00 en mm
DESCASC
Precipitaciones de 12:00 a 18:00 en mm
DESCASC
Precipitaciones de 18:00 a 24:00 en mm
DESCASC
25-04-2019 -0.1 (00:00) -3.3 (09:10) -1.7 26.11 (03:10) 17.5 (04:30) 2.4 0 0 2.2 0.2
24-04-2019 2.9 (16:30) -4.8 (03:50) -1 35 (10:10) 23.61 (08:50) 46.4 0 6.6 12.6 27.2
23-04-2019 2.6 (01:00) -4 (23:50) -0.7 19.72 (05:40) 12.78 (06:30) 3 1.6 1 0.4 0
22-04-2019 8.3 (16:10) -0.7 (-00:0) 3.8 15.28 (23:40) 8.89 (23:10) 0 0 0 0 0
21-04-2019 5.5 (00:10) 0.4 (00:00) 3 13.33 (11:00) 10.28 (10:30) 0 0 0 0 0
20-04-2019 11.1 (17:40) 1.7 (00:00) 6.4 23.89 (08:30) 17.5 (11:10) 0 0 0 0 0
19-04-2019 3.9 (12:10) -0.1 (00:00) 1.9 18.33 (23:50) 13.89 (23:50) 1.2 0 0.2 0.6 0.4
18-04-2019 3.9 (12:30) -0.3 (00:00) 1.8 14.72 (02:20) 7.78 (01:10) 10.4 7.4 1.8 0 1.2
17-04-2019 7.7 (13:10) 1.1 (00:00) 4.4 22.78 (13:50) 13.06 (05:10) 15 0 0 0 15
16-04-2019 11.4 (16:20) -1.6 (-00:0) 4.9 17.22 (23:30) 11.11 (23:30) 0 0 0 0 0
15-04-2019 8.9 (02:10) 0.6 (00:00) 4.7 20.83 (12:50) 14.17 (14:30) 4 0 0 0.8 3.2
14-04-2019 11.5 (15:10) 2.9 (00:00) 7.2 11.11 (23:20) 7.78 (23:20) 0 0 0 0 0
13-04-2019 9.6 (18:10) -1.6 (-00:0) 4 9.72 (16:30) 5.56 (22:10) 0 0 0 0 0
12-04-2019 6.3 (17:40) -2.7 (-00:0) 1.8 8.33 (01:20) 6.67 (00:20) 0 0 0 0 0
11-04-2019 3.5 (14:40) -3.8 (-00:0) -0.1 8.89 (23:00) 6.67 (23:00) 8.8 0 5.6 3.2 0
10-04-2019 0.1 (15:10) -3.1 (-00:0) -1.5 13.61 (02:30) 7.22 (03:00) 8.8 0 0.6 8 0.2
09-04-2019 -0.3 (18:30) -2.9 (-00:0) -1.6 19.72 (11:40) 12.78 (11:40) 3.2 0 0 3.2 0
08-04-2019 2.8 (16:00) -2 (-00:0) 0.4 21.94 (04:40) 15.83 (04:40) 4.8 4.2 0.6 0 0
07-04-2019 2.1 (17:50) -4.4 (-00:0) -1.2 -- (--) -- (--) 17.8 0 0.2 14.4 3.2
06-04-2019 -1.9 (15:50) -6.3 (-00:0) -4.1 -- (--) -- (--) 0 0 0 0 0
05-04-2019 -1.1 (01:40) -5.4 (-00:0) -3.3 -- (--) -- (--) 3.6 0 0 3.4 0.2
04-04-2019 3.8 (15:30) -7.1 (-00:0) -1.6 15.28 (23:30) 10 (23:50) 0 0 0 0 0
03-04-2019 3.4 (11:20) -5.1 (23:59) -0.8 11.11 (16:50) 6.94 (08:20) 0 0 0 0 0
02-04-2019 6.4 (14:40) 0.1 (00:00) 3.3 11.11 (19:20) 7.22 (21:40) 0.4 0 0 0.2 0.2
01-04-2019 6.2 (17:40) 0.1 (00:00) 3.1 5.83 (22:20) 3.89 (21:50) 1 0 0 0 1
31-03-2019 7.1 (12:00) 1 (00:00) 4 8.89 (16:30) 6.11 (16:30) 2.4 0 0 2.4 0
30-03-2019 8.3 (16:10) -1 (-00:0) 3.7 7.22 (11:00) 4.44 (10:20) 0 0 0 0 0
29-03-2019 8.8 (13:10) 1.1 (00:00) 5 10 (07:10) 7.22 (07:10) 0 0 0 0 0
28-03-2019 9.2 (16:50) -0.3 (00:00) 4.4 9.17 (15:30) 6.39 (00:50) 0 0 0 0 0
27-03-2019 9.1 (14:30) 2.1 (00:00) 5.6 11.39 (00:20) 9.17 (00:20) 0 0 0 0 0

Gráficas

Temp. máximas Temp. mínimas Temp. medias Precipitaciones Rachas de viento máximas Velocidades máximas media en intervalos de 10 minutos

Datos horarios

Fecha y hora oficial Temperatura (ºC) Velocidad del viento (km/h) Dirección del viento Racha (km/h) Dirección de racha Precipitación (mm) Presión (hPa) Tendencia (hPa) Humedad (%)
2019-04-25 23:00:00 -1.6 37 Sudoeste 59 Sudoeste 0 801.6 2.5 100
2019-04-25 22:00:00 -1.6 35 Sudoeste 59 Sudoeste 0 800.6 2.1 100
2019-04-25 21:00:00 -1.4 34 Sudoeste 58 Sudoeste 0 799.9 2 100
2019-04-25 20:00:00 -1.6 42 Sudoeste 68 Sudoeste 0.2 799.1 1.7 99
2019-04-25 19:00:00 -0.9 35 Sudoeste 66 Sudoeste 0 798.5 1.2 100
2019-04-25 18:00:00 -1.3 40 Sudoeste 71 Sudoeste 0.4 797.9 1.3 99
2019-04-25 17:00:00 -1.1 40 Sudoeste 63 Sudoeste 0 797.4 1.3 100
2019-04-25 16:00:00 -2.2 32 Sudoeste 62 Sudoeste 0.4 797.3 1.4 99
2019-04-25 15:00:00 -1.4 37 Sudoeste 62 Sudoeste 0.6 796.6 1.4 99
2019-04-25 14:00:00 -2.1 32 Sudoeste 66 Sudoeste 0.8 796.1 1.8 99
2019-04-25 13:00:00 -2 36 Sudoeste 66 Sudoeste 0 795.9 2.2 100
2019-04-25 12:00:00 -2.2 47 Sudoeste 73 Sudoeste 0 795.2 2.1 100
2019-04-25 11:00:00 -2.4 43 Sudoeste 76 Sudoeste 0 794.3 2 100
2019-04-25 10:00:00 -3 45 Sudoeste 67 Sudoeste 0 793.7 2.1 99
2019-04-25 09:00:00 -3.2 41 Sudoeste 67 Sudoeste 0 793.1 2 99
2019-04-25 08:00:00 -2.8 46 Sudoeste 73 Sudoeste 0 792.3 1.5 100
2019-04-25 07:00:00 -2.7 46 Sudoeste 80 Sudoeste 0 791.6 0.6 100
2019-04-25 06:00:00 -2.6 56 Sudoeste 85 Sudoeste 0 791.1 0 100
2019-04-25 05:00:00 -2.2 60 Sudoeste 90 Sudoeste 0 790.8 -0.2 100
2019-04-25 04:00:00 -2.9 53 Sudoeste 94 Sudoeste 0 791 0.7 --
2019-04-25 03:00:00 -2 55 Sudoeste 84 Sudoeste 0 791.1 0.7 --
2019-04-25 02:00:00 -1.7 58 Sudoeste 88 Oeste 0 791 1.3 --
2019-04-25 01:00:00 -0.9 57 Sudoeste 91 Sudoeste 0 790.3 1.1 --
2019-04-25 00:00:00 -0.1 51 Sudoeste 99 Sudoeste 2 790.4 1.4 --
2019-04-24 23:00:00 1.1 64 Sudoeste 105 Sudoeste 6.2 789.7 0 100
2019-04-24 22:00:00 1.8 62 Sudoeste 111 Oeste 4.8 789.2 0.5 100
2019-04-24 21:00:00 1.1 60 Sudoeste 91 Sudoeste 5.4 789 0.5 100
2019-04-24 20:00:00 0.1 55 Sudoeste 107 Sudoeste 4.2 789.7 1.3 --
2019-04-24 19:00:00 0.7 67 Sudoeste 109 Sudoeste 4.6 788.7 1.1 100
2019-04-24 18:00:00 0.2 70 Sudoeste 98 Sudoeste 2.2 788.5 0.4 100
2019-04-24 17:00:00 1.5 60 Sudoeste 96 Sudoeste 7 788.4 0.9 100
2019-04-24 16:00:00 2.5 75 Sudoeste 116 Sudoeste 0.2 787.6 0.2 99
2019-04-24 15:00:00 1.9 67 Sudoeste 106 Sudoeste 0.8 788.1 0.7 99
2019-04-24 14:00:00 1.8 70 Sudoeste 111 Oeste 0.2 787.5 0.9 98
2019-04-24 13:00:00 1.4 65 Sudoeste 106 Sudoeste 2.2 787.4 2.2 99
2019-04-24 12:00:00 0.8 61 Sudoeste 104 Sudoeste 3 787.4 2.4 100
2019-04-24 11:00:00 1 67 Sudoeste 126 Sudoeste 3.4 786.6 1.4 100
2019-04-24 10:00:00 0.6 71 Sudoeste 119 Sudoeste 0 785.2 0.3 98
2019-04-24 09:00:00 -0.1 83 Sudoeste 118 Sudoeste 0 785 -0.8 95
2019-04-24 08:00:00 -2.1 58 Sudoeste 104 Sudoeste 0.2 785.2 -1.5 96
2019-04-24 07:00:00 -2.9 52 Sudoeste 76 Sudoeste 0 784.9 -2.4 98
2019-04-24 06:00:00 -3.5 48 Sudoeste 81 Sudoeste 0 785.8 -2.1 97
2019-04-24 05:00:00 -3.8 40 Sudoeste 67 Sudoeste 0 786.7 -1.3 98
2019-04-24 04:00:00 -4.7 30 Sudoeste 64 Sudoeste 0 787.3 -0.8 98
2019-04-24 03:00:00 -4.3 41 Sudoeste -- -- 0 787.9 -0.2 99
2019-04-24 02:00:00 -4.2 37 Sudoeste -- -- 0 788 0.1 99
2019-04-24 01:00:00 -3.8 34 Sudoeste 58 Sudoeste 0 788.1 0.7 99
2019-04-24 00:00:00 -3.9 33 Sudoeste 55 Sudoeste 0 788.1 1.1 99
2019-04-23 23:00:00 -3.4 25 Sudoeste 40 Sudoeste 0 787.9 1.4 99
2019-04-23 22:00:00 -3 31 Sudoeste 49 Sudoeste 0 787.4 1.3 99
2019-04-23 21:00:00 -3 28 Sudoeste 48 Sudoeste 0 787 1.5 99
2019-04-23 20:00:00 -2.4 22 Oeste 42 Sudoeste 0 786.5 1.2 100
2019-04-23 19:00:00 -2.4 30 Sudoeste 51 Oeste 0 786.1 1.1 100
2019-04-23 18:00:00 -2.6 33 Sudoeste 54 Sudoeste 0 785.5 0.7 99
2019-04-23 17:00:00 -2.2 26 Sudoeste 51 Sudoeste 0 785.3 0.8 100
2019-04-23 16:00:00 -2.2 38 Sudoeste 51 Sudoeste 0 785 0.4 99
2019-04-23 15:00:00 -2.1 22 Sudoeste 39 Oeste 0 784.8 0.2 99
2019-04-23 14:00:00 -0.7 24 Sudoeste 53 Sudoeste 0 784.5 0.2 94
2019-04-23 13:00:00 0.4 21 Oeste 30 Oeste 0.4 784.6 0.8 93
2019-04-23 12:00:00 -0.1 17 Sudoeste 31 Sudoeste 1 784.6 0.8 88
2019-04-23 11:00:00 -2.1 19 Oeste 34 Sudoeste 0 784.3 1 95
2019-04-23 10:00:00 -3.5 25 Sudoeste 39 Oeste 0 783.8 1.2 93
2019-04-23 09:00:00 -3.4 23 Sudoeste 36 Sudoeste 0 783.8 0.5 96
2019-04-23 08:00:00 -2.1 25 Sudoeste 58 Sudoeste 0 783.3 -0.6 94
2019-04-23 07:00:00 -2 40 Sudoeste 67 Sudoeste 0 782.6 -1.3 98
2019-04-23 06:00:00 -0.1 42 Sudoeste 71 Sudoeste 0 783.3 -1.4 95
2019-04-23 05:00:00 -0.2 31 Sudoeste 55 Oeste 0 783.9 -2 99
2019-04-23 04:00:00 0.1 38 Sur 62 Sur 0 783.9 -2.7 92
2019-04-23 03:00:00 0.8 37 Sur 68 Sudoeste 1 784.7 -2.5 90
2019-04-23 02:00:00 2.1 26 Sudoeste 58 Sur 0.2 785.9 -1.9 91
2019-04-23 01:00:00 2.2 37 Sudoeste 55 Sudoeste 0.4 786.6 -1.5 94
2019-04-23 00:00:00 2.5 26 Sudoeste 55 Sudoeste 0 787.2 -1.2 84
2019-04-22 23:00:00 3.2 32 Sudoeste 50 Sudoeste 0 787.8 -0.9 77
2019-04-22 22:00:00 4 29 Sudoeste 46 Sudoeste 0 788.1 -1.3 88
2019-04-22 21:00:00 4.3 25 Sudoeste 36 Sudoeste 0 788.4 -1.2 85
2019-04-22 20:00:00 4.7 17 Oeste 37 Oeste 0 788.7 -1.3 84
2019-04-22 19:00:00 5.5 23 Sudoeste 41 Sudoeste 0 789.4 -1 73
2019-04-22 18:00:00 6.5 25 Sudoeste 40 Sudoeste 0 789.6 -1.2 65
2019-04-22 17:00:00 6.5 23 Sudoeste 41 Sudoeste 0 790 -1.3 74
2019-04-22 16:00:00 7.2 21 Oeste 39 Oeste 0 790.4 -1.5 63
2019-04-22 15:00:00 6.5 22 Oeste 36 Oeste 0 790.8 -1.6 67
2019-04-22 14:00:00 5.9 18 Oeste 27 Oeste 0 791.3 -1.2 73
2019-04-22 13:00:00 5.4 12 Oeste 21 Oeste 0 791.9 -0.6 73
2019-04-22 12:00:00 4.9 12 Oeste 23 Oeste 0 792.4 0 69
2019-04-22 11:00:00 3.8 10 Noroeste 20 Sudoeste 0 792.5 0.3 72
2019-04-22 10:00:00 3.1 9 Oeste 19 Sudoeste 0 792.5 0.2 78
2019-04-22 09:00:00 1.7 12 Sudoeste 17 Sudoeste 0 792.4 -0.2 90
2019-04-22 08:00:00 -0.3 13 Sudoeste 18 Sudoeste 0 792.2 -1.2 90
2019-04-22 07:00:00 -0.7 14 Sudoeste 17 Sudoeste 0 792.3 -1.7 93
2019-04-22 06:00:00 -0.6 14 Sudoeste 16 Sudoeste 0 792.6 -2.2 94
2019-04-22 05:00:00 -0.1 11 Sudoeste 14 Sudoeste 0 793.4 -2.1 97
2019-04-22 04:00:00 -0.3 7 Sudoeste 11 Sudoeste 0 794 -1.8 97
2019-04-22 03:00:00 0.1 3 Sudoeste 9 Sudeste 0 794.8 -1.4 96
2019-04-22 02:00:00 0.1 6 Este 13 Este 0 795.5 -1 92
2019-04-22 01:00:00 0.6 10 Este 17 Este 0 795.8 -0.4 86
2019-04-22 00:00:00 0.9 12 Este 21 Sudeste 0 796.2 0.1 88
2019-04-21 23:00:00 1.4 15 Este 19 Este 0 796.5 0.2 97
2019-04-21 22:00:00 1.7 13 Este 23 Este 0 796.2 -0.5 96
2019-04-21 21:00:00 2 13 Este 26 Nordeste 0 796.1 -0.7 96
2019-04-21 20:00:00 2.7 18 Nordeste 27 Nordeste 0 796.3 -0.9 91
2019-04-21 19:00:00 2.6 13 Nordeste 35 Nordeste 0 796.7 -0.9 89
2019-04-21 18:00:00 3.3 17 Nordeste 32 Nordeste 0 796.8 -1.2 82
2019-04-21 17:00:00 3.1 20 Nordeste 32 Nordeste 0 797.2 -0.8 84
2019-04-21 16:00:00 3.4 22 Nordeste 35 Nordeste 0 797.6 -0.5 84
2019-04-21 15:00:00 3.2 22 Nordeste 41 Nordeste 0 798 -0.2 83
2019-04-21 14:00:00 2.9 28 Nordeste 43 Nordeste 0 798 -0.2 87
2019-04-21 13:00:00 3.6 31 Nordeste 41 Nordeste 0 798.1 -0.6 82
2019-04-21 12:00:00 3.1 32 Este 45 Este 0 798.2 -0.9 85
2019-04-21 11:00:00 1.2 35 Este 48 Nordeste 0 798.2 -1 97
2019-04-21 10:00:00 0.6 30 Este 38 Este 0 798.7 -0.8 98
2019-04-21 09:00:00 1 22 Este 34 Este 0 799.1 -0.8 92
2019-04-21 08:00:00 1.3 25 Este 37 Este 0 799.2 -1.1 89
2019-04-21 07:00:00 1.5 19 Este 35 Este 0 799.5 -1.3 83
2019-04-21 06:00:00 1.6 14 Este 23 Nordeste 0 799.9 -1.5 81
2019-04-21 05:00:00 2.5 15 Este 30 Este 0 800.3 -1.8 80
2019-04-21 04:00:00 3.1 16 Este 30 Este 0 800.8 -1.8 79
2019-04-21 03:00:00 2.1 23 Sudeste 32 Sudeste 0 801.4 -1.6 86
2019-04-21 02:00:00 4.3 17 Este 35 Este 0 802.1 -1.2 75
2019-04-21 01:00:00 5.1 24 Este 37 Este 0 802.6 -0.7 71
2019-04-21 00:00:00 5.4 21 Este 32 Este 0 803 -0.2 72
2019-04-20 23:00:00 6 21 Este 30 Este 0 803.3 0.2 68
2019-04-20 22:00:00 6.5 19 Este 35 Este 0 803.3 0.1 65
2019-04-20 21:00:00 7.7 23 Nordeste 38 Nordeste 0 803.2 -0.2 58
2019-04-20 20:00:00 9 25 Nordeste 39 Nordeste 0 803.1 -0.6 56
2019-04-20 19:00:00 10.4 27 Nordeste 43 Nordeste 0 803.2 -0.8 49
2019-04-20 18:00:00 11 27 Nordeste 44 Nordeste 0 803.4 -0.6 50
2019-04-20 17:00:00 10 29 Nordeste 42 Nordeste 0 803.7 -0.3 58
2019-04-20 16:00:00 10.2 32 Nordeste 48 Nordeste 0 804 -0.1 55
2019-04-20 15:00:00 8.2 33 Nordeste 47 Nordeste 0 804 0.4 65
2019-04-20 14:00:00 8.5 32 Nordeste 45 Nordeste 0 804 1.5 68
2019-04-20 13:00:00 8.4 31 Nordeste 54 Nordeste 0 804.1 1.7 75
2019-04-20 12:00:00 9 46 Este 86 Este 0 803.6 1.7 59
2019-04-20 11:00:00 8 57 Este 79 Este 0 802.5 0.3 47
2019-04-20 10:00:00 6.1 55 Este 78 Este 0 802.4 0.3 55
2019-04-20 09:00:00 5 60 Este 86 Este 0 801.9 -0.1 59
2019-04-20 08:00:00 3.3 54 Este 72 Este 0 802.2 -0.6 78
2019-04-20 07:00:00 3.1 50 Este 77 Este 0 802.1 -0.7 95
2019-04-20 06:00:00 2.7 52 Este 75 Este 0 802 -0.9 100
2019-04-20 05:00:00 2.5 44 Este 68 Este 0 802.8 -0.6 100
2019-04-20 04:00:00 1.8 47 Este 71 Este 0 802.8 0.1 100
2019-04-20 03:00:00 2.3 41 Este 66 Este 0 802.9 0.3 100
2019-04-20 02:00:00 2.4 41 Este 68 Este 0 803.4 0.7 100
2019-04-20 01:00:00 2.6 44 Este 69 Este 0 802.7 0.2 100
2019-04-20 00:00:00 2.9 47 Este 66 Este 0.2 802.6 0.5 100
2019-04-19 23:00:00 2.6 44 Este 56 Este 0 802.7 0.7 100
2019-04-19 22:00:00 2.3 38 Este 50 Nordeste 0.2 802.5 0.8 100
2019-04-19 21:00:00 2.1 33 Este 46 Nordeste 0 802.1 0.7 100
2019-04-19 20:00:00 2.2 27 Este 36 Este 0 802 0.8 100
2019-04-19 19:00:00 2.7 28 Este 40 Nordeste 0 801.7 0.5 99
2019-04-19 18:00:00 2.9 28 Este 42 Este 0 801.4 0.1 99
2019-04-19 17:00:00 3 30 Este 41 Este 0 801.2 -0.1 99
2019-04-19 16:00:00 2.4 33 Este 48 Nordeste 0.2 801.2 -0.1 100
2019-04-19 15:00:00 2.4 27 Nordeste 39 Nordeste 0.2 801.3 0.3 99
2019-04-19 14:00:00 2.6 15 Nordeste 27 Nordeste 0.2 801.3 1 95
2019-04-19 13:00:00 3 17 Nordeste 28 Nordeste 0 801.3 1.7 96
2019-04-19 12:00:00 3 11 Este 24 Este 0 801 1.6 89
2019-04-19 11:00:00 2.2 12 Este 19 Nordeste 0 800.3 1.5 89
2019-04-19 10:00:00 2.6 9 Sudeste 18 Sudeste 0 799.6 1.3 89
2019-04-19 09:00:00 1.1 7 Sur 12 Sur 0.2 799.4 1.3 93
2019-04-19 08:00:00 0.2 9 Sur 15 Sur 0 798.8 0.6 94
2019-04-19 07:00:00 0.8 7 Sudeste 17 Sur 0 798.3 0 97
2019-04-19 06:00:00 0.7 9 Sudeste 12 Sudeste 0 798.1 -0.4 100
2019-04-19 05:00:00 0.5 6 Oeste 12 Sur 0 798.2 -0.7 100
2019-04-19 04:00:00 0.5 6 Noroeste 12 Oeste 0 798.3 -0.9 --
2019-04-19 03:00:00 0.6 5 Oeste 8 Oeste 0 798.5 -0.8 100
2019-04-19 02:00:00 0.3 4 Sudeste 9 Este 0 798.9 -0.3 --
2019-04-19 01:00:00 0.2 6 Este 14 Norte 0 799.2 0.3 --
2019-04-19 00:00:00 1.2 9 Norte 14 Norte 0.2 799.3 0.8 100
2019-04-18 23:00:00 1 7 Este 13 Este 0.4 799.2 1 100
2019-04-18 22:00:00 0.9 5 Nordeste 16 Norte 0.4 798.9 0.7 100
2019-04-18 21:00:00 0.7 3 Este 14 Nordeste 0.2 798.5 0.5 100
2019-04-18 20:00:00 2.1 10 Nordeste 17 Este 0 798.2 0.2 97
2019-04-18 19:00:00 1.9 6 Este 18 Nordeste 0 798.2 0.1 99
2019-04-18 18:00:00 1.6 7 Este 18 Nordeste 0 798 -0.2 99
2019-04-18 17:00:00 2 12 Nordeste 26 Nordeste 0 798 -0.3 100
2019-04-18 16:00:00 1.6 16 Nordeste 27 Nordeste 0 798.1 -0.5 100
2019-04-18 15:00:00 1.9 17 Nordeste 25 Nordeste 0 798.2 -0.7 100
2019-04-18 14:00:00 2.4 15 Nordeste 23 Este 0 798.3 -0.4 97
2019-04-18 13:00:00 2.1 15 Nordeste 23 Nordeste 0 798.6 0.2 98
2019-04-18 12:00:00 2.8 8 Sudeste 13 Sudeste 0.2 798.9 0.7 92
2019-04-18 11:00:00 1 4 Noroeste 10 Nordeste 0.4 798.7 0.8 99
2019-04-18 10:00:00 1.6 5 Nordeste 14 Nordeste 1.2 798.4 1 96
2019-04-18 09:00:00 0 9 Este 22 Sudoeste 0 798.2 0.6 98
2019-04-18 08:00:00 -0.3 13 Oeste 33 Sudoeste 0 797.9 0.5 98
2019-04-18 07:00:00 -0.1 24 Sudoeste 35 Sudoeste 0 797.4 -0.2 98
2019-04-18 06:00:00 0.1 8 Sur 15 Noroeste 0.2 797.6 0.1 100
2019-04-18 05:00:00 0.3 10 Oeste 26 Sudoeste 0.4 797.4 -0.4 100
2019-04-18 04:00:00 0.5 10 Oeste 44 Sur 0.8 797.6 -0.2 100
2019-04-18 03:00:00 0.7 25 Sudoeste 53 Sur 1 797.5 0 98
2019-04-18 02:00:00 0.9 23 Sur 49 Sur 2 797.8 0.5 98
2019-04-18 01:00:00 1 25 Sur 47 Sur 3 797.8 1.1 97
2019-04-18 00:00:00 1.1 24 Sudoeste 50 Sudoeste 3.6 797.5 1 99
2019-04-17 23:00:00 1.1 30 Sudoeste 63 Sudoeste 2.4 797.3 1 98
2019-04-17 22:00:00 1.6 26 Sudoeste 57 Sudoeste 5.2 796.7 0.4 98
2019-04-17 21:00:00 3.2 28 Sur 62 Sudoeste 3.2 796.5 -0.1 97
2019-04-17 20:00:00 4.9 31 Sur 71 Sudeste 0.6 796.3 -0.3 91
2019-04-17 19:00:00 5.5 29 Sur 79 Sur 0 796.3 -0.9 78
2019-04-17 18:00:00 6 34 Sur 67 Sudoeste 0 796.6 -0.7 73
2019-04-17 17:00:00 6.3 27 Sur 65 Sur 0 796.6 -1.2 72
2019-04-17 16:00:00 6.6 35 Sur 63 Sur 0 797.2 -0.8 62
2019-04-17 15:00:00 7 31 Sur 74 Sur 0 797.3 -0.4 61
2019-04-17 14:00:00 7 39 Sur 82 Sur 0 797.8 0.3 54
2019-04-17 13:00:00 7 37 Sur 72 Sur 0 798 0.7 46
2019-04-17 12:00:00 6 43 Sur 80 Sur 0 797.7 0.6 62
2019-04-17 11:00:00 6.9 46 Sur 77 Sur 0 797.5 0 59
2019-04-17 10:00:00 6.3 40 Sur 69 Sur 0 797.3 0.1 54
2019-04-17 09:00:00 6.4 35 Sur 69 Sur 0 797.1 -0.5 50
2019-04-17 08:00:00 5 40 Sur 68 Sur 0 797.5 -0.1 69
2019-04-17 07:00:00 5 40 Sur 65 Sudoeste 0 797.2 -1.4 71
2019-04-17 06:00:00 4.9 36 Sur 71 Sur 0 797.6 -1.6 67
2019-04-17 05:00:00 5 45 Sur 71 Sur 0 797.6 -1.8 72
2019-04-17 04:00:00 5.2 37 Sur 67 Sur 0 798.6 -1.5 70
2019-04-17 03:00:00 5.5 45 Sur 66 Sur 0 799.2 -1.9 54
2019-04-17 02:00:00 5.9 41 Sur 62 Sur 0 799.4 -1.6 58
2019-04-17 01:00:00 6.6 40 Sur 71 Sur 0 800.1 -1.4 54
2019-04-17 00:00:00 7.2 35 Sur 62 Sur 0 801.1 -0.2 49
2019-04-16 23:00:00 6.7 32 Sur 50 Sur 0 801 -0.4 53
2019-04-16 22:00:00 6.7 18 Sur 39 Sur 0 801.5 -0.4 53
2019-04-16 21:00:00 6.6 29 Sur 43 Sur 0 801.3 -0.6 50
2019-04-16 20:00:00 7.4 28 Sur 39 Sur 0 801.4 -1.1 41
2019-04-16 19:00:00 10.4 3 Este 19 Sudoeste 0 801.9 -1 30
2019-04-16 18:00:00 10.5 10 Sur 22 Sur 0 801.9 -1.3 26
2019-04-16 17:00:00 10.8 11 Sur 28 Sudeste 0 802.5 -0.9 23
2019-04-16 16:00:00 10.5 9 Sudeste 21 Sur 0 802.9 -0.5 31
2019-04-16 15:00:00 10.1 13 Este 31 Este 0 803.2 -0.3 28
2019-04-16 14:00:00 8.4 12 Norte 24 Nordeste 0 803.4 0 66
2019-04-16 13:00:00 8.6 10 Nordeste 21 Nordeste 0 803.4 0.2 51
2019-04-16 12:00:00 8.1 8 Nordeste 14 Nordeste 0 803.5 0.1 49
2019-04-16 11:00:00 7.5 11 Nordeste 18 Nordeste 0 803.4 0.3 39
2019-04-16 10:00:00 6.9 12 Este 17 Este 0 803.2 0.1 34
2019-04-16 09:00:00 3.9 9 Sudoeste 17 Sur 0 803.4 0.4 32
2019-04-16 08:00:00 1.3 14 Sudoeste 18 Sudoeste 0 803.1 -0.1 28
2019-04-16 07:00:00 0.4 13 Sudoeste 20 Sur 0 803.1 -0.1 36
2019-04-16 06:00:00 -0.1 15 Sur 19 Sur 0 803 -0.5 39
2019-04-16 05:00:00 -1.5 11 Sudoeste 15 Sudoeste 0 803.2 -0.1 66
2019-04-16 04:00:00 -0.3 9 Sur 19 Sudoeste 0 803.2 -0.1 73
2019-04-16 03:00:00 0.2 13 Sudoeste 19 Sudoeste 0 803.5 0.1 77
2019-04-16 02:00:00 -0.6 14 Sudoeste 18 Sudoeste 0 803.3 0.1 --
2019-04-16 01:00:00 0.5 6 Este 19 Oeste 0 803.3 1.1 100
2019-04-16 00:00:00 1.1 12 Oeste 24 Oeste 0 803.4 1.7 100
2019-04-15 23:00:00 1.9 14 Oeste 31 Oeste 0.4 803.2 2 100
2019-04-15 22:00:00 2 18 Oeste 35 Oeste 1.8 802.2 1.5 100
2019-04-15 21:00:00 0.7 18 Oeste 39 Oeste 0.6 801.7 1.6 100
2019-04-15 20:00:00 2.6 21 Oeste 40 Sudoeste 0 801.2 1.7 99
2019-04-15 19:00:00 3.1 30 Sudoeste 56 Oeste 0.4 800.7 1 97
2019-04-15 18:00:00 1.2 38 Sudoeste 59 Sudoeste 0.8 800.1 0.6 100
2019-04-15 17:00:00 3.2 41 Sudoeste 60 Sudoeste 0 799.5 0.2 98
2019-04-15 16:00:00 7.3 33 Sudoeste 65 Oeste 0 799.7 0.1 71
2019-04-15 15:00:00 7.6 44 Sudoeste 72 Sudoeste 0 799.5 -0.4 62
2019-04-15 14:00:00 8.1 40 Sudoeste 71 Sudoeste 0 799.3 -0.8 56
2019-04-15 13:00:00 7.6 39 Sur 75 Sur 0 799.6 -0.5 66
2019-04-15 12:00:00 7.5 37 Sur 64 Sur 0 799.9 -0.4 75
2019-04-15 11:00:00 6.9 34 Sur 60 Sur 0 800.1 -0.1 86
2019-04-15 10:00:00 6.8 35 Sur 59 Sur 0 800.1 -0.3 88
2019-04-15 09:00:00 7 34 Sur 58 Sur 0 800.3 -0.9 86
2019-04-15 08:00:00 7.2 32 Sur 52 Sur 0 800.2 -1.5 82
2019-04-15 07:00:00 6.8 28 Sur 51 Sur 0 800.4 -2.1 86
2019-04-15 06:00:00 6.9 22 Sur 43 Sur 0 801.2 -1.9 84
2019-04-15 05:00:00 7.1 17 Sudoeste 36 Sudoeste 0 801.7 -1.7 82
2019-04-15 04:00:00 7.3 9 Sur 35 Sur 0 802.5 -1.3 57
2019-04-15 03:00:00 8.2 20 Sudoeste 30 Sudoeste 0 803.1 -1 57
2019-04-15 02:00:00 7.6 14 Sudoeste 27 Sudoeste 0 803.4 -1.1 53
2019-04-15 01:00:00 7.7 16 Sur 34 Sur 0 803.8 -0.8 55
2019-04-15 00:00:00 8.3 19 Sur 40 Sur 0 804.1 -0.2 61
2019-04-14 23:00:00 7 13 Sudeste 24 Sur 0 804.5 0.1 83
2019-04-14 22:00:00 6.8 12 Sur 18 Sur 0 804.6 0 88
2019-04-14 21:00:00 7.1 4 Sudeste 17 Sur 0 804.3 -0.3 88
2019-04-14 20:00:00 8.2 8 Sudoeste 21 Oeste 0 804.4 -0.5 90
2019-04-14 19:00:00 8.8 12 Sudoeste 21 Oeste 0 804.6 -0.8 89
2019-04-14 18:00:00 9.5 15 Oeste 19 Oeste 0 804.6 -0.8 84
2019-04-14 17:00:00 9.1 12 Oeste 21 Oeste 0 804.9 -0.5 89
2019-04-14 16:00:00 9.4 13 Oeste 24 Oeste 0 805.4 -0.2 83
2019-04-14 15:00:00 10.8 15 Oeste 24 Oeste 0 805.4 -0.3 73
2019-04-14 14:00:00 9.9 9 Oeste 21 Oeste 0 805.4 -0.2 75
2019-04-14 13:00:00 8.7 13 Oeste 19 Oeste 0 805.6 0.6 78
2019-04-14 12:00:00 7.9 9 Oeste 15 Noroeste 0 805.7 0.8 82
2019-04-14 11:00:00 7.6 8 Oeste 15 Oeste 0 805.6 0.9 78
2019-04-14 10:00:00 6.5 11 Oeste 15 Sudoeste 0 805 0.4 81
2019-04-14 09:00:00 5.4 13 Sudoeste 23 Sudoeste 0 804.9 0.2 87
2019-04-14 08:00:00 4.4 18 Sudoeste 23 Oeste 0 804.7 -0.4 92
2019-04-14 07:00:00 4.1 15 Sudoeste 20 Sudoeste 0 804.6 -0.8 88
2019-04-14 06:00:00 4.6 13 Sudoeste 19 Sudoeste 0 804.7 -1 87
2019-04-14 05:00:00 4.9 16 Sudoeste 22 Sudoeste 0 805.1 -1.1 82
2019-04-14 04:00:00 4.7 15 Sudoeste 21 Sudoeste 0 805.4 -0.9 72
2019-04-14 03:00:00 5.5 15 Sudoeste 22 Sur 0 805.7 -0.6 71
2019-04-14 02:00:00 3.3 15 Oeste 19 Sudoeste 0 806.2 -0.3 79
2019-04-14 01:00:00 3.5 13 Oeste 18 Sudoeste 0 806.3 0 84
2019-04-14 00:00:00 3.8 15 Sudoeste 20 Sudoeste 0 806.3 0.4 84
2019-04-13 23:00:00 4.5 15 Sudoeste 24 Sudoeste 0 806.5 0.7 81
2019-04-13 22:00:00 5.2 18 Sudoeste 25 Sudoeste 0 806.3 0.8 77
2019-04-13 21:00:00 5.5 15 Sudoeste 20 Sudoeste 0 805.9 0.5 72
2019-04-13 20:00:00 6.9 13 Sudoeste 32 Oeste 0 805.8 0.4 62
2019-04-13 19:00:00 8.9 18 Oeste 32 Oeste 0 805.5 -0.2 51
2019-04-13 18:00:00 9.5 16 Oeste 32 Oeste 0 805.4 -0.2 46
2019-04-13 17:00:00 8.7 18 Sudoeste 35 Oeste 0 805.4 -0.2 49
2019-04-13 16:00:00 9.1 17 Oeste 30 Oeste 0 805.7 0.1 49
2019-04-13 15:00:00 8.9 16 Oeste 24 Oeste 0 805.6 0.1 48
2019-04-13 14:00:00 9 11 Oeste 23 Oeste 0 805.6 0.3 45
2019-04-13 13:00:00 7.6 10 Sudoeste 17 Oeste 0 805.6 0.5 40
2019-04-13 12:00:00 7.6 9 Noroeste 16 Este 0 805.5 0.5 43
2019-04-13 11:00:00 6.4 13 Nordeste 18 Este 0 805.3 0.6 50
2019-04-13 10:00:00 5.8 6 Este 20 Este 0 805.1 0.8 43
2019-04-13 09:00:00 2.2 14 Este 19 Este 0 805 0.6 50
2019-04-13 08:00:00 2 14 Este 21 Este 0 804.7 0.6 37
2019-04-13 07:00:00 1.6 13 Este 19 Sudeste 0 804.3 -0.1 23
2019-04-13 06:00:00 1.2 13 Este 24 Este 0 804.4 -0.3 58
2019-04-13 05:00:00 1.8 14 Este 27 Este 0 804.1 -1.1 46
2019-04-13 04:00:00 1.8 13 Este 29 Este 0 804.4 -0.7 38
2019-04-13 03:00:00 1.8 14 Este 26 Este 0 804.7 -0.3 39
2019-04-13 02:00:00 -1.5 2 Sudeste 9 Sudeste 0 805.2 -0.1 43
2019-04-13 01:00:00 0.4 9 Este 16 Este 0 805.1 0.5 66
2019-04-13 00:00:00 0.5 12 Este 13 Sudeste 0 805 0.7 77
2019-04-12 23:00:00 0 7 Sudoeste 10 Sudoeste 0 805.3 1.1 75
2019-04-12 22:00:00 1 5 Sudeste 8 Este 0 804.6 0.5 80
2019-04-12 21:00:00 2.1 3 Sudeste 6 Sur 0 804.3 0.1 77
2019-04-12 20:00:00 4.1 6 Nordeste 11 Norte 0 804.2 0.1 66
2019-04-12 19:00:00 5.1 9 Nordeste 17 Nordeste 0 804.1 -0.4 63
2019-04-12 18:00:00 6 8 Noroeste 18 Norte 0 804.2 -0.3 50
2019-04-12 17:00:00 5.5 10 Norte 19 Norte 0 804.1 -0.5 55
2019-04-12 16:00:00 5.1 11 Nordeste 23 Nordeste 0 804.5 0 60
2019-04-12 15:00:00 5.7 5 Norte 18 Norte 0 804.5 -0.1 57
2019-04-12 14:00:00 4.8 6 Norte 23 Nordeste 0 804.6 0.3 56
2019-04-12 13:00:00 4.4 5 Sur 25 Nordeste 0 804.5 0.6 58
2019-04-12 12:00:00 3.5 9 Nordeste 21 Nordeste 0 804.6 0.9 61
2019-04-12 11:00:00 2.4 12 Nordeste 20 Nordeste 0 804.3 0.8 65
2019-04-12 10:00:00 1.2 13 Este 20 Este 0 803.9 0.5 70
2019-04-12 09:00:00 -0.2 16 Este 23 Este 0 803.7 0.3 74
2019-04-12 08:00:00 -2.2 18 Este 23 Este 0 803.5 -0.1 80
2019-04-12 07:00:00 -2.5 12 Este 21 Este 0 803.4 -0.3 79
2019-04-12 06:00:00 -2.1 17 Este 22 Este 0 803.4 -0.4 76
2019-04-12 05:00:00 -2.1 16 Este 23 Este 0 803.6 -0.5 76
2019-04-12 04:00:00 -1.8 18 Este 26 Este 0 803.7 -0.5 75
2019-04-12 03:00:00 -1.5 21 Este 26 Este 0 803.8 -0.5 73
2019-04-12 02:00:00 -1.3 19 Este 30 Este 0 804.1 -0.2 74
2019-04-12 01:00:00 -0.8 22 Este 30 Este 0 804.2 0.1 74
2019-04-12 00:00:00 -0.9 21 Este 31 Este 0 804.3 0.5 78
2019-04-11 23:00:00 -0.7 24 Este 32 Este 0 804.3 0.6 79
2019-04-11 22:00:00 -0.7 18 Este 24 Nordeste 0 804.1 0.4 87
2019-04-11 21:00:00 0.1 17 Nordeste 24 Nordeste 0 803.8 0.1 86
2019-04-11 20:00:00 0.7 16 Nordeste 24 Nordeste 0 803.7 0.1 80
2019-04-11 19:00:00 1 12 Nordeste 30 Nordeste 0 803.7 0 75
2019-04-11 18:00:00 1.4 16 Nordeste 27 Nordeste 0 803.7 0 82
2019-04-11 17:00:00 1.9 13 Nordeste 29 Nordeste 0 803.6 -0.1 85
2019-04-11 16:00:00 1.7 16 Nordeste 28 Nordeste 0 803.7 0 85
2019-04-11 15:00:00 0.9 17 Nordeste 27 Nordeste 0 803.7 0.2 89
2019-04-11 14:00:00 1 11 Nordeste 19 Nordeste 0 803.7 0.4 87
2019-04-11 13:00:00 1.3 11 Este 16 Este 3.2 803.7 0.7 87
2019-04-11 12:00:00 0.8 12 Este 18 Este 3.6 803.5 0.6 85
2019-04-11 11:00:00 0.1 9 Este 21 Sudeste 2 803.3 0.8 93
2019-04-11 10:00:00 -1.1 13 Este 24 Este 0 803 0.5 95
2019-04-11 09:00:00 -2.5 15 Sudeste 20 Sudeste 0 802.9 0.2 99
2019-04-11 08:00:00 -3.3 15 Sudeste 22 Este 0 802.5 -0.1 99
2019-04-11 07:00:00 -3.8 8 Este 15 Este 0 802.5 0.1 99
2019-04-11 06:00:00 -3.4 7 Sudeste 13 Este 0 802.7 0.4 99
2019-04-11 05:00:00 -2 10 Este 19 Este 0 802.6 0.1 100
2019-04-11 04:00:00 -1.8 11 Este 26 Este 0 802.4 -0.2 --
2019-04-11 03:00:00 -1.3 19 Este 28 Nordeste 0 802.3 -0.4 --
2019-04-11 02:00:00 -1.2 19 Este 26 Nordeste 0 802.5 -0.2 100
2019-04-11 01:00:00 -1.5 10 Este 15 Nordeste 0 802.6 0.5 100
2019-04-11 00:00:00 -2 3 Sudeste 21 Norte 0 802.7 1.2 100
2019-04-10 23:00:00 -1.5 10 Norte 21 Norte 0.2 802.7 1.1 100
2019-04-10 22:00:00 -1.9 6 Oeste 25 Oeste 0 802.1 1.1 100
2019-04-10 21:00:00 -1.6 15 Oeste 28 Oeste 0 801.5 1.2 --
2019-04-10 20:00:00 -2.4 15 Nordeste 23 Nordeste 0 801.6 1.6 --
2019-04-10 19:00:00 -2.1 18 Nordeste 36 Nordeste 0 801 0.8 --
2019-04-10 18:00:00 -0.1 22 Oeste 39 Oeste 0.6 800.3 0 --
2019-04-10 17:00:00 0 19 Oeste 37 Oeste 1 800 -0.3 --
2019-04-10 16:00:00 -0.1 19 Oeste 39 Oeste 1 800.2 -0.1 --
2019-04-10 15:00:00 0 14 Oeste 34 Oeste 2 800.3 0 100
2019-04-10 14:00:00 -0.3 19 Oeste 31 Oeste 2 800.3 0.2 --
2019-04-10 13:00:00 -0.9 21 Oeste 39 Oeste 1.4 800.3 0.7 --
2019-04-10 12:00:00 -1.3 20 Oeste 41 Oeste 0.6 800.3 0.7 100
2019-04-10 11:00:00 -1.4 19 Oeste 34 Oeste 0 800.1 1.1 100
2019-04-10 10:00:00 -1.3 19 Oeste 31 Oeste 0 799.6 0.6 100
2019-04-10 09:00:00 -2.2 18 Oeste 35 Oeste 0 799.6 0.8 100
2019-04-10 08:00:00 -2.6 17 Oeste 29 Oeste 0 799 0 100
2019-04-10 07:00:00 -2.8 17 Oeste 35 Oeste 0 799 0 100
2019-04-10 06:00:00 -2.9 16 Oeste 34 Oeste 0 798.8 -0.7 100
2019-04-10 05:00:00 -2.9 21 Oeste 39 Oeste 0 799 -0.5 100
2019-04-10 04:00:00 -2.7 22 Oeste 40 Oeste 0 799 -0.5 100
2019-04-10 03:00:00 -2.6 26 Oeste 49 Oeste 0 799.5 0 100
2019-04-10 02:00:00 -2.2 19 Oeste 46 Oeste 0 799.5 0.1 100
2019-04-10 01:00:00 -1.9 23 Oeste 39 Oeste 0 799.5 0.6 100
2019-04-10 00:00:00 -1.9 23 Oeste 48 Sudoeste 0 799.5 1.1 100
2019-04-09 23:00:00 -1.4 26 Oeste 58 Oeste 0 799.4 1.3 --
2019-04-09 22:00:00 -1.2 27 Oeste 47 Oeste 0 798.9 1.1 --
2019-04-09 21:00:00 -1.1 30 Oeste 54 Sudoeste 0 798.4 0.4 --
2019-04-09 20:00:00 -0.6 22 Oeste 44 Oeste 0 798.1 0.1 --
2019-04-09 19:00:00 -0.9 27 Oeste 44 Oeste 0 797.8 -0.4 --
2019-04-09 18:00:00 -1 27 Oeste 46 Oeste 0 798 0.1 100
2019-04-09 17:00:00 -1 21 Oeste 42 Oeste 0.4 798 0.3 100
2019-04-09 16:00:00 -0.6 28 Oeste 41 Oeste 1 798.2 0.6 100
2019-04-09 15:00:00 -1 30 Oeste 46 Oeste 1.8 797.9 0.7 100
2019-04-09 14:00:00 -0.9 29 Oeste 46 Oeste 0 797.7 0.9 100
2019-04-09 13:00:00 -1.8 28 Oeste 58 Oeste 0 797.6 0.8 100
2019-04-09 12:00:00 -1.9 43 Sudoeste 71 Sudoeste 0 797.2 0.6 100
2019-04-09 11:00:00 -1.6 35 Sudoeste 59 Sudoeste 0 796.8 0.4 100
2019-04-09 10:00:00 -1.8 36 Sudoeste 60 Sudoeste 0 796.8 0.3 100
2019-04-09 09:00:00 -2 43 Sudoeste 63 Sudoeste 0 796.6 0.1 100
2019-04-09 08:00:00 -2.5 45 Sudoeste 63 Sudoeste 0 796.4 -0.5 100
2019-04-09 07:00:00 -1.9 39 Sudoeste 63 Sudoeste 0 796.5 -0.8 100
2019-04-09 06:00:00 -2.4 45 Sudoeste 68 Sudoeste 0 796.5 -1.2 100
2019-04-09 05:00:00 -2.8 41 Sudoeste 59 Sudoeste 0 796.9 -1 100
2019-04-09 04:00:00 -2.8 38 Sudoeste 53 Sudoeste 0 797.3 -0.8 100
2019-04-09 03:00:00 -2.6 32 Sudoeste 49 Sudoeste 0 797.7 -0.5 100
2019-04-09 02:00:00 -2.4 33 Sudoeste 50 Sudoeste 0 797.9 -0.5 100
2019-04-09 01:00:00 -1.9 26 Sudoeste 45 Sudoeste 0 798.1 -0.3 --
2019-04-09 00:00:00 -1.6 25 Oeste 45 Sudoeste 0 798.2 0.2 100
2019-04-08 23:00:00 -1.7 27 Sudoeste 46 Sudoeste 0 798.4 0.4 100
2019-04-08 22:00:00 -1.2 23 Oeste 41 Sudoeste 0 798.4 0.6 100
2019-04-08 21:00:00 -1.6 28 Sudoeste 46 Sudoeste 0 798 0.2 100
2019-04-08 20:00:00 -1 33 Sudoeste 48 Sudoeste 0 798 -0.3 100
2019-04-08 19:00:00 0.1 29 Sudoeste 46 Oeste 0 797.8 -0.7 93
2019-04-08 18:00:00 1.6 31 Sudoeste 44 Sudoeste 0 797.8 -0.9 82
2019-04-08 17:00:00 0.9 25 Sudoeste 43 Oeste 0 798.3 -0.3 92
2019-04-08 16:00:00 2.2 22 Sudoeste 36 Oeste 0 798.5 -0.2 86
2019-04-08 15:00:00 1.8 21 Sudoeste 37 Oeste 0 798.7 0.2 86
2019-04-08 14:00:00 1 25 Sudoeste 35 Sudoeste 0 798.6 0.6 88
2019-04-08 13:00:00 1.3 23 Sudoeste 38 Oeste 0 798.7 0.9 89
2019-04-08 12:00:00 0.1 27 Sudoeste 41 Oeste 0 798.5 0.7 91
2019-04-08 11:00:00 -0.2 33 Sudoeste 48 Sudoeste 0 798 0.9 87
2019-04-08 10:00:00 -0.5 38 Sudoeste 57 Sudoeste 0.2 797.8 1.2 90
2019-04-08 09:00:00 -0.4 37 Sudoeste 53 Sudoeste 0 797.8 1.2 --
2019-04-08 08:00:00 -0.2 41 Sudoeste 64 Sudoeste 0 797.1 0.6 --
2019-04-08 07:00:00 0.6 47 Sudoeste 71 Sudoeste 0.4 796.6 0.2 100
2019-04-08 06:00:00 1.5 48 Sudoeste 73 Sudoeste 1.4 796.6 -0.3 100
2019-04-08 05:00:00 1.1 49 Sudoeste 79 Sudoeste 1.8 796.5 -0.7 100
2019-04-08 04:00:00 1.9 44 Sudoeste 76 Sudoeste 0 796.4 -1 95
2019-04-08 03:00:00 1.7 47 Sudoeste 68 Sudoeste 0.2 796.9 -0.7 95
2019-04-08 02:00:00 0.7 45 Sudoeste 70 Sudoeste 0.2 797.2 -0.2 100
2019-04-08 01:00:00 0.5 44 Sudoeste 71 Sudoeste 0.6 797.4 0.3 --
2019-04-08 00:00:00 1 49 Sudoeste 63 Sudoeste 0.8 797.6 0.7 100
2019-04-07 23:00:00 1.1 46 Sudoeste 73 Sudoeste 0.4 797.4 0.7 100
2019-04-07 22:00:00 1.4 49 Sudoeste 77 Sudoeste 0 797.1 0.7 100
2019-04-07 21:00:00 1.5 48 Sudoeste 69 Sudoeste 0 796.9 1.1 100
2019-04-07 20:00:00 1.4 45 Sudoeste 75 Sudoeste 0.2 796.7 0.5 100
2019-04-07 19:00:00 1.5 48 Sudoeste 82 Sudoeste 1.8 796.4 -0.4 96
2019-04-07 18:00:00 2 54 Sudoeste 77 Sudoeste 3.4 795.8 -1 93
2019-04-07 17:00:00 0.7 40 Sudoeste 62 Oeste 2.4 796.2 -0.3 98
2019-04-07 16:00:00 0.7 17 Oeste 36 Sudoeste 3.8 796.8 0.3 96
2019-04-07 15:00:00 -0.5 24 Sudoeste 40 Sudoeste 4.8 796.8 0.7 96
2019-04-07 14:00:00 -0.3 26 Sudoeste 38 Sudoeste 0 796.5 0.9 99
2019-04-07 13:00:00 -0.7 24 Sudoeste 35 Sudoeste 0 796.5 1.4 100
2019-04-07 12:00:00 -1.1 -- -- -- -- 0.2 796.1 1.7 100
2019-04-07 11:00:00 -2.1 -- -- -- -- 0 795.6 2 100
2019-04-07 10:00:00 -3.5 -- -- -- -- 0 795.1 2.4 99
2019-04-07 09:00:00 -3.7 -- -- -- -- 0 794.4 2.1 99
2019-04-07 08:00:00 -4.3 -- -- -- -- 0 793.6 1.6 99
2019-04-07 07:00:00 -4.3 -- -- -- -- 0 792.7 0.9 99
2019-04-07 06:00:00 -4 -- -- -- -- 0 792.3 0.8 99
2019-04-07 05:00:00 -4 -- -- -- -- 0 792 0.8 99
2019-04-07 04:00:00 -4.4 -- -- -- -- 0 791.8 0.4 98
2019-04-07 03:00:00 -4.3 -- -- -- -- 0 791.5 0.2 99
2019-04-07 02:00:00 -3.8 -- -- -- -- 0 791.2 -0.2 99
2019-04-07 01:00:00 -3.6 -- -- -- -- 0 791.4 0.4 99
2019-04-07 00:00:00 -3.9 -- -- -- -- 0 791.3 0.6 99
2019-04-06 23:00:00 -3.8 -- -- -- -- 0 791.4 1 99
2019-04-06 22:00:00 -3.9 -- -- -- -- 0 791 1.4 99
2019-04-06 21:00:00 -3.8 31 Sudoeste -- -- 0 790.7 1.5 99
2019-04-06 20:00:00 -4 31 Sudoeste 50 Sudoeste 0 790.4 1.5 99
2019-04-06 19:00:00 -3.3 32 Sudoeste 48 Oeste 0 789.6 0.6 99
2019-04-06 18:00:00 -2.8 23 Oeste 41 Oeste 0 789.2 0.7 99
2019-04-06 17:00:00 -3.6 28 Sudoeste 54 Sudoeste 0 788.9 0.6 99
2019-04-06 16:00:00 -2.7 33 Sudoeste 61 Oeste 0 789 0.8 99
2019-04-06 15:00:00 -3.6 38 Sudoeste 64 Sudoeste 0 788.5 0.3 98
2019-04-06 14:00:00 -3.3 44 Sudoeste 59 Sudoeste 0 788.3 0.5 98
2019-04-06 13:00:00 -3 45 Sudoeste 72 Sudoeste 0 788.2 0.6 99
2019-04-06 12:00:00 -3.9 42 Sudoeste 64 Sudoeste 0 788.2 1.2 99
2019-04-06 11:00:00 -4.3 36 Sudoeste 65 Sudoeste 0 787.8 1 98
2019-04-06 10:00:00 -4.6 40 Sudoeste 63 Sudoeste 0 787.6 0.7 98
2019-04-06 09:00:00 -4.5 38 Sudoeste -- -- 0 787 0.1 98
2019-04-06 08:00:00 -4.3 44 Sudoeste 64 Sudoeste 0 786.8 -0.6 98
2019-04-06 07:00:00 -4.8 42 Sudoeste -- -- 0 786.9 -0.7 98
2019-04-06 06:00:00 -4.5 37 Sudoeste 54 Sudoeste 0 786.9 -0.9 98
2019-04-06 05:00:00 -4.7 26 Sudoeste 45 Sudoeste 0 787.4 -0.5 98
2019-04-06 04:00:00 -6.3 33 Sudoeste 45 Sudoeste 0 787.6 -0.2 97
2019-04-06 03:00:00 -5.4 30 Sudoeste 41 Sudoeste 0 787.8 0.2 98
2019-04-06 02:00:00 -5.3 27 Sudoeste 37 Sudoeste 0 787.9 0.7 98
2019-04-06 01:00:00 -5.5 26 Sudoeste 46 Oeste 0 787.8 1.1 98
2019-04-06 00:00:00 -5.4 24 Oeste -- -- 0 787.6 1.7 98
2019-04-05 23:00:00 -5 -- -- -- -- 0 787.2 1.7 98
2019-04-05 22:00:00 -4.7 -- -- -- -- 0 786.7 1.6 98
2019-04-05 21:00:00 -3.8 30 Oeste 52 Sudoeste 0 785.9 0.8 99
2019-04-05 20:00:00 -4.1 34 Sudoeste 52 Sudoeste 0 785.5 0.4 97
2019-04-05 19:00:00 -3.6 36 Sudoeste 58 Sudoeste 0.2 785.1 0.3 91
2019-04-05 18:00:00 -3.8 27 Sudoeste 42 Sudoeste 0.4 785.1 0.2 97
2019-04-05 17:00:00 -2.9 26 Sudoeste -- -- 0.2 785.1 0.5 93
2019-04-05 16:00:00 -3.9 -- -- -- -- 0.2 784.8 -0.2 92
2019-04-05 15:00:00 -4.6 33 Oeste 55 Sudoeste 1.8 784.9 0.1 97
2019-04-05 14:00:00 -2 20 Sudoeste 28 Sudoeste 0.8 784.6 0.1 90
2019-04-05 13:00:00 -3.7 19 Sudoeste 58 Oeste 0 785 1 97
2019-04-05 12:00:00 -3.5 -- -- -- -- 0 784.8 0.8 99
2019-04-05 11:00:00 -4.3 11 Oeste -- -- 0 784.5 0.6 98
2019-04-05 10:00:00 -3.4 17 Sudoeste 32 Sudoeste 0 784 0.5 99
2019-04-05 09:00:00 -3.3 25 Sudoeste 51 Sudoeste 0 784 0.1 98
2019-04-05 08:00:00 -3.1 28 Sudoeste 55 Sudoeste 0 783.9 0.2 99
2019-04-05 07:00:00 -2.1 38 Sudoeste 55 Sudoeste 0 783.5 -0.2 87
2019-04-05 06:00:00 -2.5 37 Sudoeste 67 Sudoeste 0 783.9 -0.9 88
2019-04-05 05:00:00 -2.7 44 Sudoeste 78 Sudoeste 0 783.7 -1.5 88
2019-04-05 04:00:00 -1.9 51 Sudoeste 81 Sudoeste 0 783.7 -2.1 94
2019-04-05 03:00:00 -1.8 44 Sudoeste 69 Sudoeste 0 784.8 -1.5 93
2019-04-05 02:00:00 -1.6 38 Sudoeste 66 Sudoeste 0 785.2 -1.6 88
2019-04-05 01:00:00 -1.2 39 Sudoeste 59 Sudoeste 0 785.8 -1.3 87
2019-04-05 00:00:00 -2.2 30 Sudoeste 55 Sudoeste 0 786.3 -1.3 89
2019-04-04 23:00:00 -3.2 14 Oeste 48 Oeste 0 786.8 -1.2 99
2019-04-04 22:00:00 -3 25 Oeste 37 Sudoeste 0 787.1 -1.1 92
2019-04-04 21:00:00 -2.3 20 Sudoeste 40 Oeste 0 787.6 -0.7 79
2019-04-04 20:00:00 -0.9 26 Sudoeste 39 Sudoeste 0 788 -0.8 59
2019-04-04 19:00:00 -0.3 27 Sudoeste 41 Sudoeste 0 788.2 -1.1 52
2019-04-04 18:00:00 1.3 24 Oeste 42 Oeste 0 788.3 -1.5 54
2019-04-04 17:00:00 2 22 Oeste 41 Oeste 0 788.8 -1.6 53
2019-04-04 16:00:00 2.8 21 Oeste 39 Oeste 0 789.3 -1.5 51
2019-04-04 15:00:00 2.5 24 Oeste 42 Oeste 0 789.8 -1 48
2019-04-04 14:00:00 1.2 14 Oeste 31 Oeste 0 790.4 -0.2 44
2019-04-04 13:00:00 0.5 13 Oeste 24 Oeste 0 790.8 0.4 51
2019-04-04 12:00:00 -0.1 9 Oeste 17 Oeste 0 790.8 0.6 47
2019-04-04 11:00:00 -1.3 6 Oeste 16 Oeste 0 790.6 0.8 33
2019-04-04 10:00:00 -2 6 Oeste 14 Oeste 0 790.4 0.6 36
2019-04-04 09:00:00 -3.3 3 Este 12 Sudeste 0 790.2 0.3 47
2019-04-04 08:00:00 -6 6 Este 14 Norte 0 789.8 -0.2 53
2019-04-04 07:00:00 -5.6 5 Norte 13 Noroeste 0 789.8 -0.7 52
2019-04-04 06:00:00 -6.7 3 Sudoeste 17 Oeste 0 789.9 -1.3 70
2019-04-04 05:00:00 -6.4 5 Noroeste 15 Noroeste 0 790 -1.8 88
2019-04-04 04:00:00 -6.9 4 Este 15 Nordeste 0 790.5 -1.9 94
2019-04-04 03:00:00 -6.6 9 Este 23 Nordeste 0 791.2 -1.4 98
2019-04-04 02:00:00 -6.4 12 Nordeste 31 Nordeste 0 791.8 -1.1 95
2019-04-04 01:00:00 -6.2 9 Nordeste 21 Norte 0 792.4 -0.1 92
2019-04-04 00:00:00 -5.1 10 Noroeste 20 Noroeste 0 792.6 0.2 79
2019-04-03 23:00:00 -4.2 12 Norte 24 Norte 0 792.9 0.5 86
2019-04-03 22:00:00 -3.3 15 Noroeste 23 Noroeste 0 792.5 -0.2 83
2019-04-03 21:00:00 -2.5 14 Noroeste 32 Oeste 0 792.4 -0.2 72
2019-04-03 20:00:00 -0.2 20 Noroeste 36 Oeste 0 792.4 -0.6 64
2019-04-03 19:00:00 1.3 20 Noroeste 40 Noroeste 0 792.7 -0.7 58
2019-04-03 18:00:00 1.7 18 Oeste 36 Noroeste 0 792.6 -1.1 58
2019-04-03 17:00:00 1.9 23 Noroeste 40 Noroeste 0 793 -1 61
2019-04-03 16:00:00 2.1 19 Oeste 38 Oeste 0 793.4 -0.9 62
2019-04-03 15:00:00 1.8 17 Oeste 27 Oeste 0 793.7 -0.8 66
2019-04-03 14:00:00 0.7 17 Oeste 26 Oeste 0 794 -0.4 79
2019-04-03 13:00:00 0.6 17 Oeste 24 Oeste 0 794.3 -0.3 86
2019-04-03 12:00:00 1.5 14 Oeste 32 Oeste 0 794.5 -0.6 82
2019-04-03 11:00:00 2.9 20 Sudoeste 34 Sudoeste 0 794.4 -1.1 45
2019-04-03 10:00:00 1.7 24 Sudoeste 38 Sudoeste 0 794.6 -1.4 49
2019-04-03 09:00:00 -1.3 10 Oeste 33 Sudoeste 0 795.1 -1.2 90
2019-04-03 08:00:00 -0.9 18 Sudoeste 23 Sudoeste 0 795.5 -1.9 74
2019-04-03 07:00:00 -1.1 12 Sudoeste 28 Sudoeste 0 796 -1.9 92
2019-04-03 06:00:00 -1 13 Sudoeste 22 Sudoeste 0 796.3 -2.6 70
2019-04-03 05:00:00 -0.7 6 Oeste 28 Sudoeste 0 797.4 -2.3 92
2019-04-03 04:00:00 1.4 21 Sudoeste 28 Sudoeste 0 797.9 -2.4 80
2019-04-03 03:00:00 0.5 9 Sudoeste 17 Sudoeste 0 798.9 -1.8 86
2019-04-03 02:00:00 0 8 Sudoeste 12 Sur 0 799.7 -1.3 88
2019-04-03 01:00:00 0.9 7 Sudoeste 16 Sudoeste 0 800.3 -0.4 90
2019-04-03 00:00:00 2.2 12 Sudoeste 22 Oeste 0 800.7 0.2 87
2019-04-02 23:00:00 2.9 9 Sudoeste 28 Sudoeste 0 801 0.4 83
2019-04-02 22:00:00 3 19 Sudoeste 36 Sudoeste 0 800.7 0.2 92
2019-04-02 21:00:00 3.4 15 Sudoeste 29 Oeste 0 800.5 -0.3 76
2019-04-02 20:00:00 5.2 22 Sudoeste 40 Oeste 0 800.6 -0.5 75
2019-04-02 19:00:00 5.1 21 Sudoeste 35 Sudoeste 0.2 800.5 -0.9 80
2019-04-02 18:00:00 5 18 Oeste 37 Oeste 0.2 800.8 -0.9 81
2019-04-02 17:00:00 4.4 14 Oeste 24 Oeste 0 801.1 -0.8 83
2019-04-02 16:00:00 4.9 12 Oeste 24 Oeste 0 801.4 -0.8 82
2019-04-02 15:00:00 5.1 17 Oeste 25 Oeste 0 801.7 -0.6 70
2019-04-02 14:00:00 4.9 14 Oeste 30 Oeste 0 801.9 -0.1 70
2019-04-02 13:00:00 5.6 14 Oeste 22 Oeste 0 802.2 0.3 67
2019-04-02 12:00:00 5.2 10 Oeste 17 Oeste 0 802.3 0.8 67
2019-04-02 11:00:00 3.8 9 Oeste 14 Noroeste 0 802 0.9 66
2019-04-02 10:00:00 2.2 6 Oeste 10 Sudoeste 0 801.9 0.9 91
2019-04-02 09:00:00 1.2 3 Sur 10 Sudoeste 0 801.5 0.4 96
2019-04-02 08:00:00 0.1 9 Sudoeste 12 Sur 0 801.1 -0.4 89
2019-04-02 07:00:00 1.3 5 Sudoeste 8 Sur 0 801 -0.6 86
2019-04-02 06:00:00 1.4 6 Sur 16 Sudoeste 0 801.1 -0.7 87
2019-04-02 05:00:00 1.1 13 Sudoeste 15 Sudoeste 0 801.5 -0.2 95
2019-04-02 04:00:00 1.7 11 Sudoeste 13 Sudoeste 0 801.6 -0.2 84
2019-04-02 03:00:00 2.1 9 Sudoeste 16 Sudeste 0 801.8 0.1 84
2019-04-02 02:00:00 1.6 6 Oeste 13 Sur 0 801.7 -0.1 87
2019-04-02 01:00:00 1.9 4 Sur 18 Sudeste 0 801.8 0.3 87
2019-04-02 00:00:00 2.2 10 Este 16 Sudeste 0 801.7 0.9 88
2019-04-01 23:00:00 2.6 11 Este 21 Este 0 801.8 1.4 82
2019-04-01 22:00:00 2 13 Sudeste 18 Sudeste 0.6 801.5 1.4 87
2019-04-01 21:00:00 2.8 7 Este 13 Este 0 800.8 0.9 83
2019-04-01 20:00:00 2.9 8 Sur 18 Sur 0.2 800.4 0.6 82
2019-04-01 19:00:00 3.1 12 Sudeste 18 Sudeste 0.2 800.1 0.2 89
2019-04-01 18:00:00 4.3 10 Oeste 17 Oeste 0 799.9 -0.2 80
2019-04-01 17:00:00 4.5 5 Norte 12 Oeste 0 799.8 -0.5 76
2019-04-01 16:00:00 3.7 8 Oeste 19 Norte 0 799.9 -0.5 91
2019-04-01 15:00:00 4.2 7 Sudoeste 18 Oeste 0 800.1 -0.1 82
2019-04-01 14:00:00 3.6 5 Oeste 15 Oeste 0 800.3 0.6 87
2019-04-01 13:00:00 3.5 8 Oeste 16 Noroeste 0 800.4 1.2 87
2019-04-01 12:00:00 3.4 4 Oeste 12 Nordeste 0 800.2 1.3 83
2019-04-01 11:00:00 4.4 2 Sudeste 13 Oeste 0 799.7 1 78
2019-04-01 10:00:00 2.1 5 Oeste 11 Noroeste 0 799.2 0.7 91
2019-04-01 09:00:00 1.2 4 Norte 11 Norte 0 798.9 0.4 97
2019-04-01 08:00:00 1 6 Norte 11 Norte 0 798.7 0.1 97
2019-04-01 07:00:00 0.8 2 Sudoeste 9 Sudoeste 0 798.5 -0.1 95
2019-04-01 06:00:00 1.1 5 Sur 8 Sudoeste 0 798.5 -0.4 90
2019-04-01 05:00:00 1.1 5 Sudoeste 8 Sudoeste 0 798.6 -0.3 92
2019-04-01 04:00:00 0.9 5 Sur 7 Sur 0 798.6 -0.4 89
2019-04-01 03:00:00 1.3 2 Sur 6 Sur 0 798.9 -0.2 88
2019-04-01 02:00:00 1.2 3 Sudeste 7 Sudeste 0 798.9 -0.1 85
2019-04-01 01:00:00 1 3 Sur 8 Sudeste 0 799 0.4 83
2019-04-01 00:00:00 1.9 6 Sudeste 11 Sudeste 0 799.1 0.9 79
2019-03-31 23:00:00 1.6 7 Este 16 Este 0 799 0.8 80
2019-03-31 22:00:00 2.5 11 Este 21 Este 0 798.6 0.4 73
2019-03-31 21:00:00 2.4 10 Este 13 Este 0 798.2 -0.1 75
2019-03-31 20:00:00 4.4 7 Este 15 Este 0 798.2 -0.3 68
2019-03-31 19:00:00 4.1 10 Nordeste 22 Este 0 798.2 -0.5 75
2019-03-31 18:00:00 4.8 10 Nordeste 30 Nordeste 0 798.3 -1 64
2019-03-31 17:00:00 4.6 18 Este 32 Nordeste 0 798.5 -1.2 69
2019-03-31 16:00:00 3.5 14 Este 30 Nordeste 0 798.7 -1.2 80
2019-03-31 15:00:00 2.9 12 Este 21 Este 1.2 799.3 -0.6 89
2019-03-31 14:00:00 3.1 7 Oeste 17 Nordeste 1.2 799.7 -0.1 82
2019-03-31 13:00:00 3.7 14 Nordeste 25 Nordeste 0 799.9 0.3 72
2019-03-31 12:00:00 7 9 Este 20 Este 0 799.9 0.4 55
2019-03-31 11:00:00 5.3 5 Nordeste 16 Este 0 799.8 0.4 54
2019-03-31 10:00:00 4.4 11 Este 21 Este 0 799.6 0.1 59
2019-03-31 09:00:00 2.3 8 Este 13 Sudeste 0 799.5 -0.3 65
2019-03-31 08:00:00 1 9 Este 12 Sudeste 0 799.4 -1 73
2019-03-31 07:00:00 1.4 6 Sudeste 13 Sudeste 0 799.5 -1.4 69
2019-03-31 06:00:00 1.8 9 Sudeste 16 Sudeste 0 799.8 -1.7 67
2019-03-31 05:00:00 1.8 7 Sudeste 15 Sudeste 0 800.4 -1.6 64
2019-03-31 03:00:00 2.4 12 Sur 20 Sur 0 801.5 -1.1 68
2019-03-31 01:00:00 2.7 13 Sur 23 Sur 0 802 -1 63
2019-03-31 00:00:00 3.1 13 Sudeste 17 Sudeste 0 802.3 -0.6 62
2019-03-30 23:00:00 2.4 15 Sudeste 18 Sudeste 0 802.6 -0.1 62
2019-03-30 22:00:00 2 13 Sudeste 20 Sudeste 0 803 0.4 67
2019-03-30 21:00:00 2.6 14 Sudeste 21 Sudeste 0 802.9 0.4 67
2019-03-30 20:00:00 2.6 5 Sur 10 Oeste 0 802.7 0.4 62
2019-03-30 19:00:00 4.5 9 Noroeste 20 Nordeste 0 802.6 0.1 57
2019-03-30 18:00:00 5.5 14 Norte 23 Norte 0 802.5 -0.8 50
2019-03-30 17:00:00 6.6 12 Nordeste 21 Este 0 802.3 -1.5 42
2019-03-30 16:00:00 8 7 Norte 19 Nordeste 0 802.5 -1.7 38
2019-03-30 15:00:00 6.4 10 Noroeste 20 Nordeste 0 803.3 -1.2 41
2019-03-30 14:00:00 6.7 8 Nordeste 24 Sudeste 0 803.8 -0.9 36
2019-03-30 13:00:00 6.2 9 Nordeste 22 Nordeste 0 804.2 -0.5 39
2019-03-30 12:00:00 4.9 8 Este 22 Norte 0 804.5 -0.1 45
2019-03-30 11:00:00 6.5 12 Nordeste 26 Nordeste 0 804.7 0.1 45
2019-03-30 10:00:00 5.5 13 Nordeste 24 Este 0 804.7 0.1 46
2019-03-30 09:00:00 4.9 10 Nordeste 19 Nordeste 0 804.6 0 50
2019-03-30 08:00:00 1.7 5 Sudeste 10 Sudeste 0 804.6 -0.1 61
2019-03-30 07:00:00 0.1 7 Sudeste 10 Sudeste 0 804.6 -0.3 68
2019-03-30 06:00:00 -0.9 6 Sur 13 Sur 0 804.6 -0.6 67
2019-03-30 05:00:00 0.1 6 Sur 12 Sudoeste 0 804.7 -0.8 62
2019-03-30 04:00:00 1.4 10 Sur 18 Sur 0 804.9 -0.9 58
2019-03-30 03:00:00 1.1 9 Sudeste 14 Sudeste 0 805.2 -0.8 62
2019-03-30 02:00:00 1.2 8 Sudeste 11 Sudeste 0 805.5 -0.7 62
2019-03-30 01:00:00 1.3 7 Sudeste 13 Sur 0 805.8 -0.6 63
2019-03-30 00:00:00 2.1 10 Sudeste 15 Sudeste 0 806 -0.2 56
2019-03-29 23:00:00 2.1 8 Sudeste 15 Sudeste 0 806.2 0.4 59
2019-03-29 22:00:00 2.1 10 Sudeste 14 Sudeste 0 806.4 0.7 59
2019-03-29 21:00:00 1.8 9 Sudoeste 13 Sudoeste 0 806.2 0.6 63
2019-03-29 20:00:00 2.6 11 Oeste 24 Oeste 0 805.8 0.1 60
2019-03-29 19:00:00 5.8 18 Oeste 28 Oeste 0 805.7 -0.2 47
2019-03-29 18:00:00 7.1 14 Oeste 25 Oeste 0 805.6 -0.7 45
2019-03-29 17:00:00 7.7 14 Oeste 24 Oeste 0 805.7 -1.1 41
2019-03-29 16:00:00 7.1 10 Oeste 23 Oeste 0 805.9 -1.2 39
2019-03-29 15:00:00 7.8 11 Oeste 24 Oeste 0 806.3 -1 36
2019-03-29 14:00:00 7.2 13 Norte 35 Nordeste 0 806.8 -0.6 38
2019-03-29 13:00:00 8.3 5 Noroeste 22 Oeste 0 807.1 -0.3 35
2019-03-29 12:00:00 7.6 6 Noroeste 23 Este 0 807.3 0 34
2019-03-29 11:00:00 7.1 9 Nordeste 22 Este 0 807.4 0.1 34
2019-03-29 10:00:00 5.8 13 Este 22 Sudeste 0 807.4 0.3 33
2019-03-29 09:00:00 4.7 16 Sudeste 26 Sudeste 0 807.3 0.2 33
2019-03-29 08:00:00 3 17 Sudeste 36 Sur 0 807.3 0.3 37
2019-03-29 07:00:00 2.1 24 Sur 35 Sur 0 807.1 -0.3 37
2019-03-29 06:00:00 1.3 20 Sudeste 30 Sudeste 0 807.1 -0.5 43
2019-03-29 05:00:00 1.7 21 Sudeste 30 Sudeste 0 807 -1 43
2019-03-29 04:00:00 2.4 17 Sudeste 28 Sudeste 0 807.4 -0.8 38
2019-03-29 03:00:00 2 18 Sudeste 26 Sudeste 0 807.6 -0.9 41
2019-03-29 02:00:00 2.3 13 Sudeste 30 Sur 0 808 -0.8 39
2019-03-29 01:00:00 2.5 19 Sur 26 Sur 0 808.2 -0.7 38
2019-03-29 00:00:00 2.2 14 Sudeste 21 Sudeste 0 808.5 -0.3 50
2019-03-28 23:00:00 2.1 10 Este 13 Este 0 808.8 0.3 54
2019-03-28 22:00:00 2.4 8 Sudeste 12 Sudeste 0 808.9 0.4 53
2019-03-28 21:00:00 3.1 5 Este 10 Este 0 808.8 0.4 47
2019-03-28 20:00:00 3.9 5 Sudeste 9 Norte 0 808.5 0.1 54
2019-03-28 19:00:00 6.9 4 Norte 16 Nordeste 0 808.5 -0.2 39
2019-03-28 18:00:00 7.8 10 Este 19 Nordeste 0 808.4 -0.6 37
2019-03-28 17:00:00 8.2 10 Norte 27 Nordeste 0 808.4 -1 35
2019-03-28 16:00:00 8.6 10 Nordeste 33 Noroeste 0 808.7 -0.9 35
2019-03-28 15:00:00 8 9 Oeste 25 Noroeste 0 809 -0.7 38
2019-03-28 14:00:00 7.6 14 Oeste 26 Oeste 0 809.4 -0.4 37
2019-03-28 13:00:00 7.2 13 Noroeste 25 Oeste 0 809.6 -0.1 40
2019-03-28 12:00:00 6.8 13 Oeste 21 Noroeste 0 809.7 0 37
2019-03-28 11:00:00 6.6 8 Oeste 14 Noroeste 0 809.8 0.3 36
2019-03-28 10:00:00 6.5 8 Norte 17 Norte 0 809.7 0.5 33
2019-03-28 09:00:00 5.1 6 Noroeste 9 Noroeste 0 809.7 0.8 38
2019-03-28 08:00:00 2.1 4 Sur 9 Sur 0 809.5 0.7 51
2019-03-28 07:00:00 -0.2 7 Sur 10 Sur 0 809.2 0.4 52
2019-03-28 06:00:00 0.5 9 Sur 11 Sur 0 808.9 0 48
2019-03-28 05:00:00 0.5 9 Sur 12 Sur 0 808.8 -0.3 48
2019-03-28 04:00:00 1.5 7 Sur 17 Sur 0 808.8 -0.5 41
2019-03-28 03:00:00 3 14 Sur 21 Sur 0 808.9 -0.2 37
2019-03-28 02:00:00 2.3 17 Sudeste 29 Este 0 809.1 0.5 42
2019-03-28 01:00:00 3.2 22 Sudeste 30 Sudeste 0 809.3 0.5 40
2019-03-28 00:00:00 3.1 21 Sudeste 36 Este 0 809.1 0.5 39
2019-03-27 23:00:00 3.9 30 Este 37 Este 0 808.6 0.2 33
2019-03-27 22:00:00 2.8 21 Este 31 Este 0 808.8 0.6 37
2019-03-27 21:00:00 3.6 18 Este 26 Este 0 808.6 0.7 32
2019-03-27 20:00:00 3.6 15 Este 23 Este 0 808.4 0.7 32
2019-03-27 19:00:00 5.5 10 Nordeste 19 Nordeste 0 808.2 0.5 29
2019-03-27 18:00:00 7.1 15 Nordeste 23 Nordeste 0 807.9 0.1 29
2019-03-27 17:00:00 7.8 14 Nordeste 28 Nordeste 0 807.7 -0.4 27
2019-03-27 16:00:00 8.5 13 Nordeste 24 Nordeste 0 807.7 -0.3 29
2019-03-27 15:00:00 8.6 13 Nordeste 23 Nordeste 0 807.8 -0.1 30
2019-03-27 14:00:00 7.7 10 Noroeste 28 Nordeste 0 808.1 0.4 38
2019-03-27 13:00:00 8.3 15 Nordeste 26 Nordeste 0 808 0.7 34
2019-03-27 12:00:00 7.9 15 Nordeste 26 Nordeste 0 807.9 0.7 32
2019-03-27 11:00:00 7.6 15 Nordeste 23 Nordeste 0 807.7 0.9 32
2019-03-27 10:00:00 6.8 9 Nordeste 18 Nordeste 0 807.3 1.1 31
2019-03-27 09:00:00 6.1 6 Nordeste 21 Sudeste 0 807.2 1.5 26
2019-03-27 08:00:00 3.4 7 Este 16 Este 0 806.8 1.2 23
2019-03-27 07:00:00 2.3 12 Sudeste 27 Sudeste 0 806.2 0.6 29
2019-03-27 06:00:00 3 15 Sudeste 28 Sudeste 0 805.7 0 29
2019-03-27 05:00:00 2.3 20 Sudeste 24 Sudeste 0 805.6 0 33
2019-03-27 04:00:00 3.3 6 Sur 20 Sur 0 805.6 0 29
2019-03-27 03:00:00 2.5 12 Sudeste 30 Sudeste 0 805.7 0.4 30
2019-03-27 02:00:00 5.3 23 Sudeste 33 Este 0 805.6 0.5 18
2019-03-27 01:00:00 5.6 19 Sudeste 41 Sudeste 0 805.6 0.6 20
2019-03-27 00:00:00 4.2 32 Sudeste 44 Sudeste 0 805.3 0.7 34